createdAt,value
2022-08-22T00:03:09.769Z,19.69
2022-08-22T00:03:15.676Z,19.64
2022-08-22T00:07:35.928Z,19.63
2022-08-22T00:11:57.509Z,19.61
2022-08-22T00:16:20.331Z,19.57
2022-08-22T00:20:35.901Z,19.52
2022-08-22T00:25:26.030Z,19.44
2022-08-22T00:29:39.985Z,19.40
2022-08-22T00:33:46.850Z,19.33
2022-08-22T00:38:02.864Z,19.26
2022-08-22T00:42:31.365Z,19.16
2022-08-22T00:46:33.495Z,19.07
2022-08-22T00:50:53.974Z,19.04
2022-08-22T00:55:13.240Z,19.00
2022-08-22T00:59:33.388Z,18.95
2022-08-22T01:03:50.145Z,18.89
2022-08-22T01:13:41.656Z,18.58
2022-08-22T01:18:35.125Z,18.43
2022-08-22T01:23:26.892Z,18.29
2022-08-22T01:28:34.283Z,18.25
2022-08-22T01:33:34.962Z,18.27
2022-08-22T01:38:30.917Z,18.34
2022-08-22T01:43:05.559Z,18.40
2022-08-22T01:51:51.046Z,18.70
2022-08-22T01:56:11.314Z,18.82
2022-08-22T02:00:35.450Z,18.90
2022-08-22T02:04:42.916Z,18.93
2022-08-22T02:09:01.441Z,18.95
2022-08-22T02:13:13.051Z,18.94
2022-08-22T02:17:35.144Z,18.86
2022-08-22T02:21:53.520Z,18.84
2022-08-22T02:26:07.506Z,18.86
2022-08-22T02:30:14.891Z,18.85
2022-08-22T02:39:13.051Z,18.76
2022-08-22T02:48:57.593Z,18.73
2022-08-22T02:53:37.065Z,18.77
2022-08-22T02:57:47.736Z,18.79
2022-08-22T03:01:53.950Z,18.82
2022-08-22T03:06:40.119Z,18.82
2022-08-22T03:11:12.229Z,18.81
2022-08-22T03:15:51.066Z,18.71
2022-08-22T03:19:56.971Z,18.59
2022-08-22T03:24:55.446Z,18.41
2022-08-22T04:16:41.666Z,16.78
2022-08-22T06:57:52.346Z,19.33
2022-08-22T07:18:53.681Z,21.08
2022-08-22T07:29:01.210Z,21.78
2022-08-22T07:33:58.038Z,22.28
2022-08-22T07:38:21.447Z,22.61
2022-08-22T07:42:55.538Z,22.90
2022-08-22T07:47:41.975Z,23.02
2022-08-22T07:53:02.095Z,23.16
2022-08-22T07:57:12.562Z,23.33
2022-08-22T08:05:41.392Z,23.64
2022-08-22T08:09:49.634Z,23.84
2022-08-22T08:14:07.382Z,24.21
2022-08-22T08:18:19.919Z,24.45
2022-08-22T08:22:27.209Z,24.75
2022-08-22T08:26:38.767Z,24.96
2022-08-22T08:30:47.313Z,25.02
2022-08-22T08:39:14.777Z,25.34
2022-08-22T08:43:48.697Z,25.54
2022-08-22T08:47:50.403Z,26.11
2022-08-22T08:52:28.897Z,26.40
2022-08-22T08:57:01.392Z,26.89
2022-08-22T09:01:29.725Z,27.35
2022-08-22T09:05:44.475Z,27.77
2022-08-22T09:10:27.420Z,28.14
2022-08-22T09:15:11.892Z,28.45
2022-08-22T09:19:56.419Z,28.59
2022-08-22T09:24:23.301Z,28.83
2022-08-22T09:28:38.823Z,29.00
2022-08-22T09:32:46.418Z,29.24
2022-08-22T09:37:16.998Z,29.49
2022-08-22T09:41:34.059Z,29.69
2022-08-22T09:45:50.265Z,29.78
2022-08-22T09:49:58.612Z,29.79
2022-08-22T09:54:15.367Z,30.01
2022-08-22T09:58:40.290Z,30.12
2022-08-22T10:02:54.367Z,30.22
2022-08-22T10:07:15.435Z,30.54
2022-08-22T10:11:27.302Z,30.75
2022-08-22T10:15:45.901Z,30.98
2022-08-22T10:19:54.103Z,30.92
2022-08-22T10:24:44.050Z,30.88
2022-08-22T10:28:53.378Z,31.06
2022-08-22T10:33:05.289Z,30.30
2022-08-22T10:37:23.846Z,30.42
2022-08-22T10:41:36.229Z,30.15
2022-08-22T10:45:40.172Z,30.38
2022-08-22T10:49:51.412Z,30.98
2022-08-22T10:53:55.904Z,30.95
2022-08-22T10:58:09.911Z,31.18
2022-08-22T11:02:42.380Z,31.24
2022-08-22T11:07:23.168Z,31.50
2022-08-22T11:11:35.917Z,31.53
2022-08-22T11:16:07.012Z,32.01
2022-08-22T11:20:19.829Z,32.25
2022-08-22T11:24:46.522Z,32.51
2022-08-22T11:29:19.432Z,32.57
2022-08-22T11:34:01.172Z,32.98
2022-08-22T11:38:13.444Z,32.75
2022-08-22T11:42:24.583Z,32.80
2022-08-22T11:46:35.955Z,33.02
2022-08-22T11:50:48.676Z,32.74
2022-08-22T11:54:53.284Z,32.57
2022-08-22T11:59:05.017Z,33.58
2022-08-22T12:03:09.636Z,34.57
2022-08-22T12:07:20.850Z,35.41
2022-08-22T12:11:44.721Z,35.92
2022-08-22T12:16:06.079Z,36.38
2022-08-22T12:20:38.009Z,36.56
2022-08-22T12:25:07.848Z,36.98
2022-08-22T12:29:39.875Z,37.37
2022-08-22T12:33:56.288Z,36.90
2022-08-22T12:38:00.721Z,35.68
2022-08-22T12:42:36.517Z,34.43
2022-08-22T12:47:02.483Z,35.45
2022-08-22T12:51:32.366Z,34.84
2022-08-22T12:55:59.423Z,33.49
2022-08-22T13:00:32.086Z,32.55
2022-08-22T13:04:34.427Z,31.88
2022-08-22T13:08:41.707Z,31.86
2022-08-22T13:12:51.732Z,33.35
2022-08-22T13:17:00.870Z,35.53
2022-08-22T13:21:22.479Z,36.84
2022-08-22T13:25:27.138Z,35.97
2022-08-22T13:29:52.157Z,35.73
2022-08-22T13:34:00.792Z,37.08
2022-08-22T13:38:25.742Z,38.81
2022-08-22T13:42:32.332Z,39.08
2022-08-22T13:46:44.375Z,39.55
2022-08-22T13:51:09.849Z,41.01
2022-08-22T13:55:20.060Z,41.63
2022-08-22T13:59:51.034Z,41.57
2022-08-22T14:04:28.403Z,41.39
2022-08-22T14:08:45.979Z,40.16
2022-08-22T14:12:56.963Z,38.33
2022-08-22T14:17:00.444Z,36.43
2022-08-22T14:21:33.453Z,35.22
2022-08-22T14:25:43.713Z,34.39
2022-08-22T14:29:53.092Z,33.68
2022-08-22T14:34:02.632Z,33.57
2022-08-22T14:38:20.051Z,33.00
2022-08-22T14:42:26.562Z,32.63
2022-08-22T14:46:43.544Z,32.48
2022-08-22T14:50:55.686Z,32.17
2022-08-22T14:55:27.112Z,31.67
2022-08-22T14:59:44.287Z,31.31
2022-08-22T15:03:54.107Z,31.02
2022-08-22T15:07:59.565Z,30.72
2022-08-22T15:12:04.072Z,30.49
2022-08-22T15:16:18.108Z,30.42
2022-08-22T15:20:38.239Z,30.41
2022-08-22T15:25:01.124Z,30.36
2022-08-22T15:29:25.449Z,30.28
2022-08-22T15:33:33.757Z,30.15
2022-08-22T15:37:57.736Z,30.08
2022-08-22T15:42:01.352Z,30.24
2022-08-22T15:46:18.580Z,30.41
2022-08-22T15:51:04.629Z,30.68
2022-08-22T15:55:24.320Z,30.84
2022-08-22T15:59:48.192Z,30.84
2022-08-22T16:04:02.386Z,31.04
2022-08-22T16:08:08.330Z,31.30
2022-08-22T16:12:31.778Z,31.21
2022-08-22T16:16:45.588Z,31.32
2022-08-22T16:20:53.168Z,31.92
2022-08-22T16:24:57.990Z,31.80
2022-08-22T16:28:59.559Z,31.50
2022-08-22T16:33:02.229Z,31.25
2022-08-22T16:37:03.791Z,31.15
2022-08-22T16:41:05.834Z,31.02
2022-08-22T16:45:16.230Z,30.86
2022-08-22T16:49:30.813Z,30.75
2022-08-22T16:53:35.280Z,30.47
2022-08-22T16:58:05.980Z,30.29
2022-08-22T17:02:23.683Z,30.20
2022-08-22T17:06:45.501Z,30.11
2022-08-22T17:11:08.185Z,29.96
2022-08-22T17:15:48.753Z,30.06
2022-08-22T17:20:16.531Z,30.01
2022-08-22T17:24:45.020Z,29.96
2022-08-22T17:29:15.254Z,29.73
2022-08-22T17:33:27.869Z,29.39
2022-08-22T17:38:02.458Z,29.05
2022-08-22T17:42:28.462Z,28.80
2022-08-22T17:46:40.831Z,28.51
2022-08-22T17:50:55.133Z,28.14
2022-08-22T17:54:59.775Z,27.76
2022-08-22T17:59:23.778Z,27.38
2022-08-22T18:03:35.901Z,27.11
2022-08-22T18:08:01.738Z,26.74
2022-08-22T18:12:17.287Z,26.37
2022-08-22T18:16:49.584Z,26.07
2022-08-22T18:21:07.315Z,25.76
2022-08-22T18:25:33.640Z,25.51
2022-08-22T18:30:17.976Z,25.21
2022-08-22T18:34:42.397Z,24.96
2022-08-22T18:39:05.736Z,24.73
2022-08-22T18:43:17.943Z,24.53
2022-08-22T18:47:27.432Z,24.35
2022-08-22T18:51:38.815Z,24.15
2022-08-22T18:55:54.971Z,23.99
2022-08-22T19:00:02.625Z,23.88
2022-08-22T19:04:44.588Z,23.75
2022-08-22T19:09:07.727Z,23.64
2022-08-22T19:13:46.495Z,23.53
2022-08-22T19:18:06.796Z,23.43
2022-08-22T19:22:20.629Z,23.34
2022-08-22T19:26:34.860Z,23.26
2022-08-22T19:31:37.241Z,23.17
2022-08-22T19:35:41.903Z,23.06
2022-08-22T19:39:43.520Z,23.00
2022-08-22T19:43:47.556Z,22.94
2022-08-22T19:48:10.557Z,22.88
2022-08-22T19:52:30.037Z,22.84
2022-08-22T19:56:40.338Z,22.79
2022-08-22T20:01:10.261Z,22.73
2022-08-22T20:05:33.924Z,22.71
2022-08-22T20:09:56.946Z,22.72
2022-08-22T20:14:17.332Z,22.68
2022-08-22T20:19:05.158Z,22.68
2022-08-22T20:23:10.675Z,22.66
2022-08-22T20:27:17.888Z,22.69
2022-08-22T20:31:25.657Z,22.67
2022-08-22T20:35:42.945Z,22.63
2022-08-22T20:40:57.364Z,22.61
2022-08-22T20:45:12.497Z,22.53
2022-08-22T20:49:21.281Z,22.55
2022-08-22T20:53:22.998Z,22.50
2022-08-22T20:57:24.803Z,22.48
2022-08-22T21:01:28.670Z,22.51
2022-08-22T21:05:38.784Z,22.51
2022-08-22T21:09:59.221Z,22.55
2022-08-22T21:14:21.680Z,22.58
2022-08-22T21:18:32.915Z,22.57
2022-08-22T21:22:34.787Z,22.62
2022-08-22T21:26:45.438Z,22.72
2022-08-22T21:30:47.395Z,22.70
2022-08-22T21:34:49.760Z,22.76
2022-08-22T21:38:56.159Z,22.81
2022-08-22T21:43:04.738Z,22.89
2022-08-22T21:47:30.833Z,22.88
2022-08-22T21:51:44.239Z,22.87
2022-08-22T21:55:49.454Z,22.86
2022-08-22T21:59:59.599Z,22.82
2022-08-22T22:04:01.953Z,22.74
2022-08-22T22:08:04.445Z,22.72
2022-08-22T22:12:06.211Z,22.70
2022-08-22T22:16:09.251Z,22.73
2022-08-22T22:20:13.490Z,22.72
2022-08-22T22:24:15.495Z,22.82
2022-08-22T22:28:44.575Z,22.84
2022-08-22T22:32:47.737Z,22.81
2022-08-22T22:36:49.761Z,22.74
2022-08-22T22:40:52.407Z,22.70
2022-08-22T22:44:53.994Z,22.68
2022-08-22T22:48:57.253Z,22.68
2022-08-22T22:52:59.443Z,22.64
2022-08-22T22:57:01.074Z,22.61
2022-08-22T23:01:18.716Z,22.64
2022-08-22T23:05:20.912Z,22.65
2022-08-22T23:09:37.944Z,22.57
2022-08-22T23:13:42.811Z,22.49
2022-08-22T23:17:45.488Z,22.33
2022-08-22T23:21:48.902Z,22.14
2022-08-22T23:25:52.462Z,21.95
2022-08-22T23:29:54.003Z,21.82
2022-08-22T23:33:58.396Z,21.72
2022-08-22T23:38:01.238Z,21.63
2022-08-22T23:42:08.069Z,21.54
2022-08-22T23:46:11.097Z,21.43
2022-08-22T23:50:18.222Z,21.34
2022-08-22T23:54:22.758Z,21.26
2022-08-22T23:58:27.399Z,21.18
